createdAt,value
2022-11-24T00:08:20.143Z,100535.00
2022-11-24T00:18:45.049Z,100542.00
2022-11-24T00:29:09.080Z,100540.00
2022-11-24T00:39:32.219Z,100533.00
2022-11-24T00:49:54.035Z,100542.00
2022-11-24T01:00:18.698Z,100537.00
2022-11-24T01:10:40.440Z,100534.00
2022-11-24T01:21:09.981Z,100545.00
2022-11-24T01:31:33.226Z,100566.00
2022-11-24T01:41:56.578Z,100558.00
2022-11-24T01:52:22.967Z,100541.00
2022-11-24T02:02:47.047Z,100555.00
2022-11-24T02:13:09.206Z,100583.00
2022-11-24T02:23:41.876Z,100578.00
2022-11-24T02:34:05.209Z,100583.00
2022-11-24T02:44:35.956Z,100597.00
2022-11-24T02:54:59.214Z,100595.00
2022-11-24T03:05:21.367Z,100590.00
2022-11-24T03:15:44.585Z,100577.00
2022-11-24T03:26:10.282Z,100593.00
2022-11-24T03:36:33.369Z,100605.00
2022-11-24T03:46:55.473Z,100621.00
2022-11-24T03:57:19.184Z,100617.00
2022-11-24T04:07:41.775Z,100614.00
2022-11-24T04:18:05.072Z,100629.00
2022-11-24T04:28:27.285Z,100634.00
2022-11-24T04:39:22.973Z,100628.00
2022-11-24T04:49:36.444Z,100635.00
2022-11-24T04:59:59.782Z,100661.00
2022-11-24T05:10:36.882Z,100686.00
2022-11-24T05:21:00.552Z,100696.00
2022-11-24T05:31:22.145Z,100707.00
2022-11-24T05:41:45.259Z,100719.00
2022-11-24T05:52:07.013Z,100721.00
2022-11-24T06:02:32.853Z,100724.00
2022-11-24T06:12:54.675Z,100740.00
2022-11-24T06:23:17.508Z,100749.00
2022-11-24T06:33:40.166Z,100764.00
2022-11-24T06:44:10.913Z,100763.00
2022-11-24T06:54:32.935Z,100775.00
2022-11-24T07:04:56.483Z,100787.00
2022-11-24T07:15:20.669Z,100792.00
2022-11-24T07:25:43.603Z,100787.00
2022-11-24T07:36:07.124Z,100795.00
2022-11-24T07:46:32.911Z,100810.00
2022-11-24T07:56:55.065Z,100824.00
2022-11-24T08:07:18.553Z,100820.00
2022-11-24T08:17:43.741Z,100820.00
2022-11-24T08:28:06.969Z,100844.00
2022-11-24T08:38:28.769Z,100843.00
2022-11-24T08:49:05.121Z,100844.00
2022-11-24T08:59:26.918Z,100839.00
2022-11-24T09:09:52.862Z,100855.00
2022-11-24T09:20:14.852Z,100884.00
2022-11-24T09:30:37.971Z,100889.00
2022-11-24T09:41:21.834Z,100883.00
2022-11-24T09:51:48.193Z,100894.00
2022-11-24T10:02:13.345Z,100888.00
2022-11-24T10:12:51.028Z,100891.00
2022-11-24T10:23:29.938Z,100922.00
2022-11-24T10:33:52.883Z,100907.00
2022-11-24T10:44:15.599Z,100905.00
2022-11-24T10:54:57.272Z,100904.00
2022-11-24T11:05:42.123Z,100897.00
2022-11-24T11:16:23.975Z,100930.00
2022-11-24T11:26:45.668Z,100937.00
2022-11-24T11:37:16.098Z,100916.00
2022-11-24T11:47:44.061Z,100922.00
2022-11-24T11:58:24.554Z,100921.00
2022-11-24T12:09:19.238Z,100929.00
2022-11-24T12:19:56.837Z,100930.00
2022-11-24T12:30:19.677Z,100932.00
2022-11-24T12:41:18.306Z,100926.00
2022-11-24T12:51:43.946Z,100914.00
2022-11-24T13:02:19.884Z,100934.00
2022-11-24T13:12:55.018Z,100951.00
2022-11-24T13:23:27.858Z,100957.00
2022-11-24T13:33:49.070Z,100975.00
2022-11-24T13:44:26.060Z,100991.00
2022-11-24T13:54:50.844Z,100994.00
2022-11-24T14:05:17.237Z,101018.00
2022-11-24T14:15:39.237Z,101025.00
2022-11-24T14:26:02.183Z,101055.00
2022-11-24T14:36:24.017Z,101045.00
2022-11-24T14:46:47.766Z,101054.00
2022-11-24T14:57:24.650Z,101065.00
2022-11-24T15:07:49.992Z,101076.00
2022-11-24T15:18:26.414Z,101091.00
2022-11-24T15:28:49.417Z,101099.00
2022-11-24T15:39:11.068Z,101108.00
2022-11-24T15:49:34.304Z,101116.00
2022-11-24T15:59:56.097Z,101115.00
2022-11-24T16:10:25.853Z,101140.00
2022-11-24T16:20:47.430Z,101131.00
2022-11-24T16:31:10.454Z,101149.00
2022-11-24T16:41:32.267Z,101151.00
2022-11-24T16:51:56.957Z,101147.00
2022-11-24T17:02:18.973Z,101152.00
2022-11-24T17:12:41.807Z,101148.00
2022-11-24T17:23:03.630Z,101161.00
2022-11-24T17:33:26.635Z,101164.00
2022-11-24T17:43:50.240Z,101167.00
2022-11-24T18:04:55.270Z,101189.00
2022-11-24T18:15:18.506Z,101179.00
2022-11-24T18:25:40.347Z,101176.00
2022-11-24T18:36:09.078Z,101200.00
2022-11-24T18:46:30.987Z,101199.00
2022-11-24T18:56:57.781Z,101201.00
2022-11-24T19:07:23.687Z,101201.00
2022-11-24T19:17:48.964Z,101209.00
2022-11-24T19:28:12.605Z,101213.00
2022-11-24T19:38:37.387Z,101214.00
2022-11-24T19:49:01.549Z,101206.00
2022-11-24T19:59:26.381Z,101234.00
2022-11-24T20:09:47.959Z,101234.00
2022-11-24T20:20:11.604Z,101267.00
2022-11-24T20:30:34.026Z,101265.00
2022-11-24T20:41:07.400Z,101271.00
2022-11-24T20:51:33.108Z,101278.00
2022-11-24T21:01:57.042Z,101279.00
2022-11-24T21:12:18.880Z,101281.00
2022-11-24T21:22:41.736Z,101285.00
2022-11-24T21:33:03.706Z,101290.00
2022-11-24T21:43:28.664Z,101294.00
2022-11-24T21:53:50.435Z,101293.00
2022-11-24T22:04:13.504Z,101317.00
2022-11-24T22:14:40.242Z,101300.00
2022-11-24T22:25:03.587Z,101315.00
2022-11-24T22:35:25.472Z,101324.00
2022-11-24T22:45:49.022Z,101321.00
2022-11-24T22:56:12.625Z,101334.00
2022-11-24T23:06:35.792Z,101332.00
2022-11-24T23:16:57.447Z,101323.00
2022-11-24T23:27:20.838Z,101327.00
2022-11-24T23:38:06.576Z,101325.00
2022-11-24T23:48:25.576Z,101341.00
2022-11-24T23:58:47.209Z,101341.00
